createdAt,value
2022-10-09T00:00:57.060Z,15.6
2022-10-09T00:05:59.091Z,17.1
2022-10-09T00:11:01.239Z,16.8
2022-10-09T00:16:03.257Z,15.7
2022-10-09T00:21:05.164Z,16.1
2022-10-09T00:26:07.079Z,17.6
2022-10-09T00:31:09.135Z,16.5
2022-10-09T00:36:11.299Z,18.4
2022-10-09T00:41:13.187Z,16.2
2022-10-09T00:46:15.332Z,16.5
2022-10-09T00:51:17.663Z,16.6
2022-10-09T00:56:19.590Z,15.1
2022-10-09T01:01:21.588Z,17.8
2022-10-09T01:06:24.216Z,20.6
2022-10-09T01:11:26.392Z,17.7
2022-10-09T01:16:28.548Z,17.3
2022-10-09T01:21:30.631Z,16.5
2022-10-09T01:26:32.522Z,16.2
2022-10-09T01:31:34.706Z,18.2
2022-10-09T01:36:35.517Z,15.9
2022-10-09T01:41:37.351Z,16.2
2022-10-09T01:46:39.494Z,18.2
2022-10-09T01:51:41.781Z,17.3
2022-10-09T01:56:43.787Z,21
2022-10-09T02:01:45.724Z,19.5
2022-10-09T02:06:48.770Z,19.5
2022-10-09T02:11:50.690Z,18
2022-10-09T02:16:53.081Z,15.7
2022-10-09T02:21:55.231Z,15.8
2022-10-09T02:26:57.248Z,17.3
2022-10-09T02:31:59.417Z,15.4
2022-10-09T02:37:01.530Z,17.4
2022-10-09T02:42:03.450Z,16.8
2022-10-09T02:47:05.688Z,18.2
2022-10-09T02:52:07.962Z,19.1
2022-10-09T02:57:10.080Z,18
2022-10-09T03:02:12.301Z,18.2
2022-10-09T03:07:15.391Z,20.4
2022-10-09T03:12:17.633Z,19
2022-10-09T03:17:19.759Z,18.5
2022-10-09T03:22:21.648Z,18.6
2022-10-09T03:27:23.542Z,18.2
2022-10-09T03:32:25.743Z,19.2
2022-10-09T03:37:28.167Z,19.2
2022-10-09T03:42:30.062Z,19.3
2022-10-09T03:47:32.226Z,18.6
2022-10-09T03:52:34.084Z,21.6
2022-10-09T03:57:36.206Z,21.3
2022-10-09T04:02:38.228Z,21.1
2022-10-09T04:07:41.090Z,21.2
2022-10-09T04:12:43.023Z,19.6
2022-10-09T04:17:45.424Z,21.2
2022-10-09T04:22:47.526Z,22.7
2022-10-09T04:27:50.936Z,21.9
2022-10-09T04:32:53.290Z,22.1
2022-10-09T04:37:55.402Z,24
2022-10-09T04:42:57.364Z,23.9
2022-10-09T04:47:59.502Z,25.3
2022-10-09T04:53:01.393Z,22.8
2022-10-09T04:58:03.276Z,24.1
2022-10-09T05:03:05.492Z,26
2022-10-09T05:08:07.662Z,25.8
2022-10-09T05:13:09.497Z,29.2
2022-10-09T05:18:11.810Z,28.7
2022-10-09T05:23:14.321Z,24.5
2022-10-09T05:28:16.419Z,24.1
2022-10-09T05:33:18.719Z,23.9
2022-10-09T05:38:20.674Z,24.1
2022-10-09T05:43:22.879Z,23.5
2022-10-09T05:48:25.157Z,22.9
2022-10-09T05:53:27.058Z,20.5
2022-10-09T05:58:29.010Z,30.8
2022-10-09T06:03:30.980Z,25.5
2022-10-09T06:08:33.103Z,18.8
2022-10-09T06:13:35.019Z,18.6
2022-10-09T06:18:37.119Z,16.9
2022-10-09T06:23:39.243Z,16.5
2022-10-09T06:28:41.341Z,41.1
2022-10-09T06:33:42.007Z,14.4
2022-10-09T06:38:44.046Z,13
2022-10-09T06:43:46.153Z,12.2
2022-10-09T06:48:48.262Z,10.1
2022-10-09T06:53:50.307Z,11.6
2022-10-09T06:58:52.462Z,14.9
2022-10-09T07:03:54.433Z,11.5
2022-10-09T07:08:56.733Z,11.5
2022-10-09T07:13:58.657Z,11.7
2022-10-09T07:19:00.573Z,11
2022-10-09T07:24:02.695Z,10.6
2022-10-09T07:29:04.648Z,9.2
2022-10-09T07:34:06.554Z,9
2022-10-09T07:39:08.495Z,10.2
2022-10-09T07:44:11.389Z,7.6
2022-10-09T07:49:14.626Z,10.2
2022-10-09T07:54:16.841Z,9.4
2022-10-09T07:59:18.726Z,8.2
2022-10-09T08:04:20.767Z,7.4
2022-10-09T08:09:22.974Z,7
2022-10-09T08:14:24.990Z,7.3
2022-10-09T08:19:27.252Z,6.2
2022-10-09T08:24:29.506Z,6.8
2022-10-09T08:29:31.524Z,5.8
2022-10-09T08:34:40.925Z,6.6
2022-10-09T08:39:44.875Z,6.6
2022-10-09T08:44:46.984Z,5.5
2022-10-09T08:49:48.903Z,4.8
2022-10-09T08:54:50.869Z,4.8
2022-10-09T08:59:52.739Z,4.8
2022-10-09T09:04:55.075Z,8.5
2022-10-09T09:09:57.843Z,5.6
2022-10-09T09:14:59.842Z,7.1
2022-10-09T09:20:02.476Z,6.3
2022-10-09T09:25:04.866Z,6.2
2022-10-09T09:30:06.787Z,7
2022-10-09T09:35:09.278Z,7.7
2022-10-09T09:45:18.122Z,6.6
2022-10-09T09:50:42.606Z,8.2
2022-10-09T09:55:28.161Z,6.6
2022-10-09T10:00:30.399Z,8.6
2022-10-09T10:05:33.055Z,6.7
2022-10-09T10:10:35.474Z,5.5
2022-10-09T10:15:37.446Z,8.2
2022-10-09T10:20:39.768Z,7.1
2022-10-09T10:25:42.216Z,6.9
2022-10-09T10:30:44.230Z,6.5
2022-10-09T10:35:46.223Z,7.5
2022-10-09T10:40:48.234Z,7.8
2022-10-09T10:45:50.255Z,8
2022-10-09T10:50:52.653Z,7.7
2022-10-09T10:55:54.826Z,6.6
2022-10-09T11:01:04.589Z,6.9
2022-10-09T11:06:07.271Z,7.1
2022-10-09T11:11:09.457Z,7.2
2022-10-09T11:16:11.399Z,7.2
2022-10-09T11:21:13.912Z,6.9
2022-10-09T11:26:15.816Z,15.2
2022-10-09T11:31:18.140Z,7.7
2022-10-09T11:36:22.090Z,7.7
2022-10-09T11:41:24.260Z,9.2
2022-10-09T11:46:26.286Z,6.3
2022-10-09T11:51:28.619Z,6.9
2022-10-09T11:56:30.610Z,6.6
2022-10-09T12:01:32.826Z,7.4
2022-10-09T12:06:35.685Z,5.8
2022-10-09T12:11:40.013Z,6.8
2022-10-09T12:16:42.010Z,7.5
2022-10-09T12:21:44.972Z,7.4
2022-10-09T12:26:47.215Z,10.2
2022-10-09T12:31:49.191Z,5.8
2022-10-09T12:36:51.219Z,6.1
2022-10-09T12:41:53.269Z,5
2022-10-09T12:46:55.302Z,5.7
2022-10-09T12:51:59.600Z,5.4
2022-10-09T12:57:01.768Z,5.8
2022-10-09T13:02:04.212Z,5.3
2022-10-09T13:07:07.087Z,6.1
2022-10-09T13:12:09.317Z,8
2022-10-09T13:17:11.445Z,5.7
2022-10-09T13:22:13.606Z,9.2
2022-10-09T13:27:15.626Z,5.6
2022-10-09T13:32:17.647Z,6.3
2022-10-09T13:37:19.641Z,5.1
2022-10-09T13:42:21.546Z,6.5
2022-10-09T13:47:24.550Z,7.7
2022-10-09T13:52:28.216Z,4.6
2022-10-09T13:57:30.479Z,10.5
2022-10-09T14:02:32.834Z,7.3
2022-10-09T14:07:34.872Z,4.8
2022-10-09T14:12:38.083Z,5
2022-10-09T14:17:40.148Z,4.3
2022-10-09T14:22:42.220Z,5.3
2022-10-09T14:27:44.658Z,6.3
2022-10-09T14:32:46.886Z,3.9
2022-10-09T14:37:50.935Z,4.6
2022-10-09T14:42:53.035Z,5
2022-10-09T14:47:55.028Z,3.6
2022-10-09T14:52:57.021Z,4.6
2022-10-09T14:57:59.040Z,5.6
2022-10-09T15:03:01.012Z,7.5
2022-10-09T15:08:03.198Z,3.4
2022-10-09T15:13:05.453Z,4
2022-10-09T15:18:07.445Z,4.8
2022-10-09T15:23:09.652Z,4.5
2022-10-09T15:28:12.162Z,4.8
2022-10-09T15:33:14.157Z,4.7
2022-10-09T15:38:16.139Z,6.7
2022-10-09T15:43:18.226Z,5
2022-10-09T15:48:20.158Z,5.2
2022-10-09T15:53:22.646Z,4.1
2022-10-09T15:58:24.836Z,3.3
2022-10-09T16:03:26.817Z,4
2022-10-09T16:08:27.802Z,3.8
2022-10-09T16:13:29.975Z,5.4
2022-10-09T16:18:32.586Z,4.8
2022-10-09T16:23:34.795Z,4.2
2022-10-09T16:28:36.833Z,3.6
2022-10-09T16:33:39.389Z,3.4
2022-10-09T16:38:41.645Z,14
2022-10-09T16:43:42.066Z,7.2
2022-10-09T16:48:42.407Z,10.5
2022-10-09T16:53:43.084Z,6.5
2022-10-09T16:58:43.460Z,8.1
2022-10-09T17:03:43.814Z,12.5
2022-10-09T17:08:44.335Z,6
2022-10-09T17:13:44.767Z,9.2
2022-10-09T17:18:45.115Z,6.4
2022-10-09T17:23:45.681Z,6.9
2022-10-09T17:28:46.091Z,8.5
2022-10-09T17:33:46.592Z,6.6
2022-10-09T17:38:47.235Z,6.3
2022-10-09T17:43:47.621Z,10.7
2022-10-09T17:48:48.006Z,6.2
2022-10-09T17:53:48.413Z,8.4
2022-10-09T17:58:48.853Z,6.1
2022-10-09T18:03:49.256Z,5.9
2022-10-09T18:08:49.681Z,6
2022-10-09T18:13:50.344Z,7.6
2022-10-09T18:21:20.866Z,7.5
2022-10-09T18:23:51.631Z,6.2
2022-10-09T18:28:52.125Z,9.1
2022-10-09T18:33:52.584Z,10.5
2022-10-09T18:38:56.081Z,5.2
2022-10-09T18:43:56.764Z,6.7
2022-10-09T18:48:57.425Z,5
2022-10-09T18:53:57.927Z,7.6
2022-10-09T18:58:58.346Z,6.5
2022-10-09T19:03:58.757Z,25.6
2022-10-09T19:08:59.118Z,8.5
2022-10-09T19:13:59.486Z,7.9
2022-10-09T19:18:59.784Z,4.5
2022-10-09T19:24:00.105Z,4
2022-10-09T19:29:00.559Z,5.7
2022-10-09T19:34:00.901Z,6.4
2022-10-09T19:39:01.318Z,4.3
2022-10-09T19:44:01.926Z,6.3
2022-10-09T19:49:02.241Z,4.7
2022-10-09T19:54:02.646Z,5.8
2022-10-09T19:59:02.948Z,4.8
2022-10-09T20:04:03.277Z,6.4
2022-10-09T20:09:03.632Z,4.8
2022-10-09T20:14:03.968Z,3.9
2022-10-09T20:19:04.332Z,6.5
2022-10-09T20:24:04.798Z,5.7
2022-10-09T20:29:05.559Z,3.5
2022-10-09T20:34:06.177Z,4.4
2022-10-09T20:39:06.602Z,3.7
2022-10-09T20:44:07.133Z,4.8
2022-10-09T20:49:07.493Z,4.3
2022-10-09T20:54:07.964Z,4.4
2022-10-09T20:59:08.337Z,4.3
2022-10-09T21:04:08.722Z,4.7
2022-10-09T21:09:09.159Z,5.8
2022-10-09T21:14:09.550Z,5.3
2022-10-09T21:19:09.961Z,6
2022-10-09T21:24:10.294Z,5.6
2022-10-09T21:29:10.706Z,7.1
2022-10-09T21:34:11.085Z,4.3
2022-10-09T21:39:11.446Z,5.9
2022-10-09T21:44:11.909Z,7.3
2022-10-09T21:49:12.222Z,4.6
2022-10-09T21:54:12.618Z,4.8
2022-10-09T21:59:13.002Z,4.4
2022-10-09T22:04:13.387Z,4.4
2022-10-09T22:09:13.772Z,3.5
2022-10-09T22:14:14.214Z,4.2
2022-10-09T22:19:14.562Z,4.1
2022-10-09T22:24:14.920Z,4
2022-10-09T22:29:15.523Z,4.5
2022-10-09T22:34:15.866Z,3.3
2022-10-09T22:39:16.729Z,6.1
2022-10-09T22:44:17.058Z,3.6
2022-10-09T22:49:17.627Z,6.8
2022-10-09T22:54:18.102Z,6.1
2022-10-09T22:59:18.439Z,5.1
2022-10-09T23:04:18.838Z,4.7
2022-10-09T23:09:19.384Z,4.3
2022-10-09T23:14:19.740Z,4.5
2022-10-09T23:19:20.052Z,7.5
2022-10-09T23:24:20.770Z,6.4
2022-10-09T23:29:21.354Z,5.2
2022-10-09T23:34:21.752Z,6.9
2022-10-09T23:39:22.392Z,4.8
2022-10-09T23:44:22.873Z,5.4
2022-10-09T23:49:23.220Z,5.8
2022-10-09T23:54:23.782Z,6.5
2022-10-09T23:59:24.217Z,6.5
